createdAt,value
2023-01-29T00:03:02.226Z,25.25
2023-01-29T00:06:07.816Z,24.93
2023-01-29T00:09:11.828Z,27.10
2023-01-29T00:12:14.749Z,24.70
2023-01-29T00:15:18.607Z,30.70
2023-01-29T00:18:21.766Z,25.67
2023-01-29T00:21:24.739Z,33.70
2023-01-29T00:24:27.721Z,31.75
2023-01-29T00:27:30.608Z,26.95
2023-01-29T00:30:35.480Z,27.05
2023-01-29T00:33:39.332Z,25.88
2023-01-29T00:36:45.636Z,27.93
2023-01-29T00:39:49.470Z,29.70
2023-01-29T00:43:11.035Z,24.38
2023-01-29T00:46:14.724Z,24.77
2023-01-29T00:49:17.925Z,26.40
2023-01-29T00:52:26.755Z,26.77
2023-01-29T00:55:29.547Z,25.52
2023-01-29T00:58:35.438Z,26.95
2023-01-29T01:01:59.584Z,24.67
2023-01-29T01:05:03.322Z,30.40
2023-01-29T01:08:29.107Z,25.53
2023-01-29T01:11:33.721Z,28.25
2023-01-29T01:14:36.612Z,24.70
2023-01-29T01:17:39.539Z,24.17
2023-01-29T01:20:44.325Z,26.80
2023-01-29T01:23:47.795Z,24.57
2023-01-29T01:26:50.622Z,23.05
2023-01-29T01:29:53.664Z,22.25
2023-01-29T01:32:56.932Z,23.73
2023-01-29T01:36:02.297Z,25.27
2023-01-29T01:39:05.134Z,20.80
2023-01-29T01:42:13.237Z,24.85
2023-01-29T01:45:29.914Z,23.88
2023-01-29T01:48:32.797Z,22.15
2023-01-29T01:51:46.503Z,25.33
2023-01-29T01:54:52.094Z,23.53
2023-01-29T01:58:12.272Z,27.05
2023-01-29T02:01:15.232Z,26.83
2023-01-29T02:04:41.060Z,24.42
2023-01-29T02:08:05.944Z,18.45
2023-01-29T02:11:08.887Z,20.40
2023-01-29T02:14:12.301Z,27.13
2023-01-29T02:17:18.786Z,25.38
2023-01-29T02:20:26.046Z,25.58
2023-01-29T02:23:40.411Z,22.88
2023-01-29T02:27:11.292Z,24.83
2023-01-29T02:30:28.032Z,20.80
2023-01-29T02:33:39.817Z,22.05
2023-01-29T02:36:51.775Z,22.23
2023-01-29T02:40:16.815Z,23.67
2023-01-29T02:43:47.840Z,23.13
2023-01-29T02:47:11.478Z,22.10
2023-01-29T02:50:26.637Z,23.67
2023-01-29T02:53:47.516Z,23.63
2023-01-29T02:57:01.008Z,25.25
2023-01-29T03:00:18.835Z,22.70
2023-01-29T03:03:40.759Z,21.55
2023-01-29T03:06:52.064Z,22.67
2023-01-29T03:09:56.627Z,22.45
2023-01-29T03:13:34.542Z,22.52
2023-01-29T03:16:42.048Z,23.77
2023-01-29T03:19:47.122Z,19.85
2023-01-29T03:23:09.043Z,16.20
2023-01-29T03:26:35.471Z,19.38
2023-01-29T03:29:58.524Z,20.75
2023-01-29T03:33:15.353Z,15.83
2023-01-29T03:36:25.113Z,18.40
2023-01-29T03:39:29.414Z,17.85
2023-01-29T03:42:46.359Z,15.10
2023-01-29T03:46:00.920Z,20.42
2023-01-29T03:49:30.299Z,13.43
2023-01-29T03:52:36.435Z,15.70
2023-01-29T03:55:55.430Z,18.83
2023-01-29T03:59:38.673Z,13.68
2023-01-29T04:03:10.938Z,12.52
2023-01-29T04:06:27.443Z,11.30
2023-01-29T04:09:41.902Z,10.88
2023-01-29T04:12:50.343Z,9.52
2023-01-29T04:16:00.671Z,14.05
2023-01-29T04:19:26.511Z,9.57
2023-01-29T04:22:38.274Z,12.30
2023-01-29T04:25:47.970Z,9.65
2023-01-29T04:28:56.236Z,8.38
2023-01-29T04:32:16.119Z,9.90
2023-01-29T04:35:40.673Z,9.27
2023-01-29T04:39:24.237Z,9.90
2023-01-29T04:42:34.389Z,9.50
2023-01-29T04:45:54.162Z,10.45
2023-01-29T04:49:01.368Z,8.40
2023-01-29T04:52:22.545Z,10.00
2023-01-29T04:55:31.143Z,8.50
2023-01-29T04:58:47.397Z,10.50
2023-01-29T05:01:50.355Z,10.48
2023-01-29T05:04:56.155Z,10.30
2023-01-29T05:07:59.635Z,8.75
2023-01-29T05:11:02.627Z,9.37
2023-01-29T05:14:10.008Z,9.05
2023-01-29T05:17:17.939Z,7.97
2023-01-29T05:20:21.617Z,9.82
2023-01-29T05:23:25.015Z,8.60
2023-01-29T05:26:46.637Z,9.90
2023-01-29T05:29:49.523Z,10.73
2023-01-29T05:32:52.375Z,8.27
2023-01-29T05:35:56.387Z,11.20
2023-01-29T05:38:59.247Z,10.25
2023-01-29T05:42:02.334Z,8.93
2023-01-29T05:45:05.766Z,9.07
2023-01-29T05:48:08.637Z,8.55
2023-01-29T05:51:11.775Z,6.47
2023-01-29T05:54:14.597Z,9.95
2023-01-29T05:57:17.442Z,10.17
2023-01-29T06:00:20.493Z,10.05
2023-01-29T06:03:23.513Z,8.27
2023-01-29T06:06:26.360Z,8.45
2023-01-29T06:09:30.445Z,8.75
2023-01-29T06:12:33.334Z,7.37
2023-01-29T06:15:36.117Z,6.28
2023-01-29T06:18:40.405Z,8.18
2023-01-29T06:21:43.311Z,9.23
2023-01-29T06:24:46.105Z,9.13
2023-01-29T06:27:51.452Z,8.63
2023-01-29T06:30:59.695Z,10.10
2023-01-29T06:34:04.638Z,23.90
2023-01-29T06:37:09.869Z,22.98
2023-01-29T06:40:13.175Z,10.20
2023-01-29T06:43:16.099Z,9.57
2023-01-29T06:46:18.926Z,10.80
2023-01-29T06:49:21.760Z,8.50
2023-01-29T06:52:28.851Z,7.43
2023-01-29T06:55:31.594Z,8.93
2023-01-29T06:58:37.756Z,13.97
2023-01-29T07:01:42.514Z,17.75
2023-01-29T07:04:45.448Z,12.55
2023-01-29T07:07:53.335Z,7.28
2023-01-29T07:11:04.417Z,6.85
2023-01-29T07:14:07.455Z,6.37
2023-01-29T07:17:10.263Z,5.75
2023-01-29T07:20:13.292Z,6.40
2023-01-29T07:23:18.267Z,6.32
2023-01-29T07:26:21.398Z,6.93
2023-01-29T07:29:24.395Z,7.03
2023-01-29T07:32:29.146Z,6.75
2023-01-29T07:35:32.684Z,6.38
2023-01-29T07:38:35.412Z,5.82
2023-01-29T07:41:38.671Z,7.30
2023-01-29T07:44:51.320Z,5.50
2023-01-29T07:47:55.380Z,5.47
2023-01-29T07:51:00.047Z,5.20
2023-01-29T07:54:02.978Z,6.28
2023-01-29T07:57:05.805Z,5.30
2023-01-29T08:00:10.293Z,5.20
2023-01-29T08:03:22.902Z,6.93
2023-01-29T08:06:25.667Z,5.93
2023-01-29T08:09:28.539Z,5.90
2023-01-29T08:12:31.666Z,5.70
2023-01-29T08:15:37.889Z,7.07
2023-01-29T08:18:44.189Z,8.25
2023-01-29T08:21:47.007Z,7.15
2023-01-29T08:24:53.970Z,8.80
2023-01-29T08:28:03.121Z,6.60
2023-01-29T08:31:13.721Z,5.60
2023-01-29T08:34:17.478Z,9.30
2023-01-29T08:37:20.311Z,7.18
2023-01-29T08:40:23.159Z,7.72
2023-01-29T08:43:26.077Z,8.05
2023-01-29T08:46:28.903Z,6.70
2023-01-29T08:49:31.687Z,9.80
2023-01-29T08:52:34.515Z,8.88
2023-01-29T08:55:40.033Z,6.97
2023-01-29T08:58:43.583Z,8.63
2023-01-29T09:01:46.363Z,8.27
2023-01-29T09:04:49.102Z,9.25
2023-01-29T09:07:56.660Z,8.65
2023-01-29T09:11:00.502Z,7.97
2023-01-29T09:14:03.358Z,11.30
2023-01-29T09:17:06.281Z,9.40
2023-01-29T09:20:10.065Z,11.88
2023-01-29T09:23:14.151Z,11.63
2023-01-29T09:26:16.994Z,11.10
2023-01-29T09:29:20.685Z,11.05
2023-01-29T09:35:47.244Z,11.52
2023-01-29T09:38:50.064Z,10.63
2023-01-29T09:42:17.283Z,11.13
2023-01-29T09:45:30.582Z,10.27
2023-01-29T09:48:36.471Z,12.47
2023-01-29T09:51:46.790Z,11.43
2023-01-29T09:55:07.521Z,12.38
2023-01-29T09:58:38.560Z,10.38
2023-01-29T10:01:50.512Z,9.35
2023-01-29T10:05:08.695Z,8.67
2023-01-29T10:08:30.811Z,8.52
2023-01-29T10:11:49.003Z,7.60
2023-01-29T10:15:19.971Z,8.38
2023-01-29T10:18:32.029Z,7.05
2023-01-29T10:22:27.753Z,7.80
2023-01-29T10:25:36.737Z,9.75
2023-01-29T10:28:45.993Z,7.57
2023-01-29T10:31:56.906Z,9.73
2023-01-29T10:35:23.198Z,9.65
2023-01-29T10:38:45.595Z,11.33
2023-01-29T10:42:07.091Z,8.73
2023-01-29T10:45:24.361Z,10.73
2023-01-29T10:49:00.416Z,9.32
2023-01-29T10:52:10.097Z,8.98
2023-01-29T10:55:19.172Z,10.43
2023-01-29T10:58:31.791Z,10.73
2023-01-29T11:01:36.336Z,11.55
2023-01-29T11:04:39.365Z,11.27
2023-01-29T11:07:42.169Z,9.80
2023-01-29T11:10:53.462Z,10.53
2023-01-29T11:14:00.714Z,25.25
2023-01-29T11:17:04.493Z,12.75
2023-01-29T11:20:26.656Z,10.02
2023-01-29T11:23:33.849Z,11.57
2023-01-29T11:26:40.464Z,9.87
2023-01-29T11:29:48.351Z,12.45
2023-01-29T11:33:07.429Z,10.65
2023-01-29T11:36:35.585Z,10.93
2023-01-29T11:39:44.697Z,10.68
2023-01-29T11:42:48.778Z,10.20
2023-01-29T11:45:56.169Z,12.65
2023-01-29T11:49:14.043Z,10.75
2023-01-29T11:52:25.499Z,9.50
2023-01-29T11:55:41.145Z,13.15
2023-01-29T11:58:55.597Z,11.80
2023-01-29T12:02:13.623Z,9.00
2023-01-29T12:05:18.957Z,10.88
2023-01-29T12:08:24.504Z,12.55
2023-01-29T12:11:35.927Z,12.07
2023-01-29T12:14:39.299Z,11.13
2023-01-29T12:17:47.692Z,11.05
2023-01-29T12:20:57.727Z,11.77
2023-01-29T12:24:12.655Z,10.90
2023-01-29T12:27:49.338Z,11.95
2023-01-29T12:31:07.609Z,9.43
2023-01-29T12:34:39.384Z,9.48
2023-01-29T12:37:54.430Z,10.48
2023-01-29T12:41:05.682Z,12.30
2023-01-29T12:44:31.697Z,9.70
2023-01-29T12:47:45.819Z,10.40
2023-01-29T12:50:51.229Z,11.25
2023-01-29T12:54:15.650Z,9.68
2023-01-29T12:57:42.588Z,10.57
2023-01-29T13:00:50.969Z,10.93
2023-01-29T13:04:26.083Z,10.63
2023-01-29T13:07:33.668Z,9.38
2023-01-29T13:10:41.253Z,9.90
2023-01-29T13:13:54.133Z,8.60
2023-01-29T13:17:36.985Z,10.40
2023-01-29T13:20:40.925Z,8.70
2023-01-29T13:23:48.549Z,9.63
2023-01-29T13:26:52.107Z,9.75
2023-01-29T13:29:56.499Z,11.13
2023-01-29T13:33:10.692Z,11.05
2023-01-29T13:36:20.818Z,8.33
2023-01-29T13:39:29.285Z,10.77
2023-01-29T13:42:37.897Z,10.45
2023-01-29T13:45:48.003Z,10.18
2023-01-29T13:48:52.406Z,9.50
2023-01-29T13:51:55.920Z,11.33
2023-01-29T13:55:21.495Z,11.10
2023-01-29T13:58:33.436Z,12.95
2023-01-29T14:01:48.461Z,10.93
2023-01-29T14:04:51.655Z,13.30
2023-01-29T14:07:55.198Z,13.67
2023-01-29T14:11:13.289Z,20.70
2023-01-29T14:14:52.112Z,15.25
2023-01-29T14:18:22.290Z,11.75
2023-01-29T14:21:33.886Z,15.43
2023-01-29T14:24:36.826Z,11.47
2023-01-29T14:27:39.687Z,10.45
2023-01-29T14:30:48.233Z,10.82
2023-01-29T14:33:53.492Z,8.48
2023-01-29T14:37:01.344Z,11.18
2023-01-29T14:40:22.933Z,9.33
2023-01-29T14:43:26.159Z,11.82
2023-01-29T14:46:38.204Z,11.52
2023-01-29T14:49:53.703Z,10.35
2023-01-29T14:53:05.174Z,21.77
2023-01-29T14:56:29.216Z,16.93
2023-01-29T14:59:39.612Z,12.13
2023-01-29T15:02:45.533Z,9.38
2023-01-29T15:05:50.675Z,11.27
2023-01-29T15:09:06.779Z,12.02
2023-01-29T15:12:31.489Z,15.60
2023-01-29T15:15:52.071Z,12.63
2023-01-29T15:19:04.669Z,14.82
2023-01-29T15:22:14.160Z,14.60
2023-01-29T15:25:20.480Z,12.55
2023-01-29T15:28:23.359Z,11.93
2023-01-29T15:31:29.071Z,15.63
2023-01-29T15:34:32.185Z,14.13
2023-01-29T15:37:36.553Z,11.85
2023-01-29T15:40:40.710Z,13.00
2023-01-29T15:43:46.423Z,14.87
2023-01-29T15:46:55.947Z,12.90
2023-01-29T15:50:00.359Z,14.65
2023-01-29T15:53:08.782Z,15.23
2023-01-29T15:56:12.908Z,16.75
2023-01-29T15:59:24.432Z,15.07
2023-01-29T16:02:39.595Z,13.43
2023-01-29T16:05:42.988Z,17.63
2023-01-29T16:08:51.558Z,14.48
2023-01-29T16:11:58.916Z,14.98
2023-01-29T16:15:04.378Z,13.90
2023-01-29T16:18:28.535Z,15.90
2023-01-29T16:21:40.731Z,15.23
2023-01-29T16:24:45.941Z,15.77
2023-01-29T16:27:49.151Z,14.70
2023-01-29T16:30:59.327Z,13.83
2023-01-29T16:34:28.017Z,14.75
2023-01-29T16:37:36.420Z,15.55
2023-01-29T16:41:01.895Z,15.05
2023-01-29T16:44:31.870Z,15.73
2023-01-29T16:47:41.229Z,14.50
2023-01-29T16:50:54.638Z,15.80
2023-01-29T16:54:06.815Z,19.15
2023-01-29T16:57:18.088Z,18.00
2023-01-29T17:00:25.996Z,21.30
2023-01-29T17:03:32.986Z,17.53
2023-01-29T17:06:36.787Z,22.73
2023-01-29T17:09:41.139Z,24.40
2023-01-29T17:13:01.052Z,26.17
2023-01-29T17:16:15.330Z,32.10
2023-01-29T17:19:25.348Z,28.57
2023-01-29T17:22:28.517Z,21.15
2023-01-29T17:25:31.933Z,22.20
2023-01-29T17:28:35.006Z,20.58
2023-01-29T17:31:38.327Z,21.38
2023-01-29T17:34:41.279Z,21.67
2023-01-29T17:37:44.464Z,22.08
2023-01-29T17:40:47.494Z,22.20
2023-01-29T17:43:50.475Z,20.50
2023-01-29T17:46:53.993Z,23.45
2023-01-29T17:49:58.588Z,19.93
2023-01-29T17:53:02.805Z,22.45
2023-01-29T17:56:06.130Z,19.90
2023-01-29T17:59:28.611Z,24.63
2023-01-29T18:02:32.104Z,29.80
2023-01-29T18:05:35.087Z,26.20
2023-01-29T18:08:42.376Z,24.02
2023-01-29T18:11:46.852Z,22.38
2023-01-29T18:14:49.956Z,23.45
2023-01-29T18:17:53.225Z,17.98
2023-01-29T18:20:56.213Z,23.97
2023-01-29T18:24:00.532Z,23.90
2023-01-29T18:27:03.684Z,17.90
2023-01-29T18:30:07.647Z,19.23
2023-01-29T18:33:11.010Z,21.75
2023-01-29T18:36:14.084Z,19.93
2023-01-29T18:39:17.284Z,21.95
2023-01-29T18:42:20.355Z,19.23
2023-01-29T18:45:23.410Z,24.27
2023-01-29T18:48:26.755Z,25.52
2023-01-29T18:51:31.096Z,21.77
2023-01-29T18:54:34.246Z,22.52
2023-01-29T18:58:25.513Z,24.13
2023-01-29T19:01:09.289Z,21.48
2023-01-29T19:04:12.858Z,20.73
2023-01-29T19:07:16.325Z,21.37
2023-01-29T19:10:19.763Z,17.63
2023-01-29T19:13:23.297Z,25.27
2023-01-29T19:16:27.216Z,23.70
2023-01-29T19:19:31.298Z,21.27
2023-01-29T19:22:34.343Z,19.47
2023-01-29T19:25:39.485Z,22.08
2023-01-29T19:28:42.848Z,19.48
2023-01-29T19:31:46.975Z,20.95
2023-01-29T19:34:52.366Z,19.95
2023-01-29T19:37:56.217Z,20.43
2023-01-29T19:41:00.522Z,19.52
2023-01-29T19:44:04.635Z,21.48
2023-01-29T19:47:10.232Z,18.40
2023-01-29T19:50:13.824Z,21.52
2023-01-29T19:53:18.031Z,19.00
2023-01-29T19:56:21.246Z,19.95
2023-01-29T19:59:24.429Z,19.83
2023-01-29T20:02:28.675Z,19.58
2023-01-29T20:05:35.791Z,21.30
2023-01-29T20:08:39.137Z,22.53
2023-01-29T20:11:44.434Z,21.45
2023-01-29T20:14:52.131Z,26.00
2023-01-29T20:17:55.317Z,22.55
2023-01-29T20:20:59.919Z,25.92
2023-01-29T20:24:03.151Z,28.17
2023-01-29T20:27:07.342Z,29.52
2023-01-29T20:30:11.091Z,26.35
2023-01-29T20:33:14.227Z,23.20
2023-01-29T20:36:19.332Z,29.15
2023-01-29T20:39:23.789Z,30.20
2023-01-29T20:42:27.039Z,36.72
2023-01-29T20:45:33.111Z,37.78
2023-01-29T20:48:37.561Z,31.52
2023-01-29T20:51:40.790Z,30.83
2023-01-29T20:54:43.864Z,29.10
2023-01-29T20:58:05.769Z,35.25
2023-01-29T21:01:11.389Z,36.03
2023-01-29T21:04:14.447Z,37.70
2023-01-29T21:07:17.925Z,43.80
2023-01-29T21:10:21.033Z,55.83
2023-01-29T21:13:24.872Z,51.38
2023-01-29T21:16:29.149Z,55.92
2023-01-29T21:19:33.132Z,58.75
2023-01-29T21:22:36.897Z,56.42
2023-01-29T21:25:41.288Z,56.07
2023-01-29T21:28:44.983Z,57.20
2023-01-29T21:31:48.873Z,64.18
2023-01-29T21:34:52.686Z,48.03
2023-01-29T21:37:56.149Z,44.80
2023-01-29T21:41:01.103Z,36.57
2023-01-29T21:44:03.887Z,38.25
2023-01-29T21:47:12.472Z,46.33
2023-01-29T21:50:16.460Z,38.80
2023-01-29T21:53:20.143Z,47.38
2023-01-29T21:56:23.026Z,38.17
2023-01-29T21:59:26.097Z,33.92
2023-01-29T22:02:32.230Z,37.40
2023-01-29T22:05:35.427Z,38.75
2023-01-29T22:08:38.228Z,35.17
2023-01-29T22:11:41.772Z,39.10
2023-01-29T22:14:44.957Z,37.53
2023-01-29T22:17:47.903Z,33.20
2023-01-29T22:20:57.979Z,31.40
2023-01-29T22:24:00.872Z,39.28
2023-01-29T22:27:03.795Z,33.87
2023-01-29T22:30:07.550Z,33.78
2023-01-29T22:33:11.104Z,35.45
2023-01-29T22:36:14.032Z,60.65
2023-01-29T22:39:17.050Z,40.72
2023-01-29T22:42:20.795Z,43.63
2023-01-29T22:45:23.745Z,65.30
2023-01-29T22:48:28.088Z,56.17
2023-01-29T22:51:31.328Z,39.45
2023-01-29T22:54:34.141Z,31.42
2023-01-29T22:57:38.863Z,30.43
2023-01-29T23:00:41.743Z,25.90
2023-01-29T23:03:44.526Z,28.73
2023-01-29T23:06:47.403Z,28.30
2023-01-29T23:09:51.190Z,24.73
2023-01-29T23:12:54.181Z,26.60
2023-01-29T23:16:00.238Z,30.08
2023-01-29T23:19:04.214Z,28.08
2023-01-29T23:22:07.241Z,26.35
2023-01-29T23:25:10.178Z,28.85
2023-01-29T23:28:13.494Z,36.40
2023-01-29T23:31:17.889Z,38.42
2023-01-29T23:34:20.823Z,26.17
2023-01-29T23:37:24.327Z,27.50
2023-01-29T23:40:28.209Z,23.63
2023-01-29T23:43:31.357Z,24.87
2023-01-29T23:46:34.226Z,24.58
2023-01-29T23:49:37.427Z,28.23
2023-01-29T23:52:40.256Z,24.85
2023-01-29T23:55:43.304Z,22.85
2023-01-29T23:58:46.581Z,27.40
